C.kormakitis, Cyprus
Current Conditions -  °F | °C
As of 3:20 PM on Sunday 23 Nov 2014 (Local Time) from LCEN Reporting Station
Rain Showers Rain Showers  
Wind Chill: 14°   Ceiling: 3000
Heat Index: 14°   Visibility: 6mi
Dew Point: 10°   Wind: 13mph
Humidity: 77%   Direction: 100°E
Pressure: 29.94"   Gusts: 25mph
Location:  35.35°N, 32.95°E
Report Text: LCEN 231220Z 10011G22KT 9999 -SHRA FEW025CB BKN030 14/10 Q1014 RESHRA NOSIG
Loading
Personal Weather Stations






























Interactive Weather Map New forecast layout! Learn more

10-Day Weather Forecast

Advertisements
Track Severe Weather on mobile